This is the latest recevied weather packets stored in our database for station/object WB6ANP. If no packets are shown the sender has not sent any weather packets the latest 1 day(s).
| Time | Temp. | Humidity | Pressure | Rain* | Wind** | Luminosity | Snow |
|---|---|---|---|---|---|---|---|
| 1778114071 | 17.22° C | 69% | 1014.5 hPa | 0 mm | - | 45 W/m² | - |
| 1778113766 | 17.78° C | 68% | 1014.2 hPa | 0 mm | - | 53 W/m² | - |
| 1778113160 | 17.78° C | 67% | 1013.9 hPa | 0 mm | - | 63 W/m² | - |
| 1778111036 | 19.44° C | 64% | 1013.5 hPa | 0 mm | - | 117 W/m² | - |
| 1778109217 | 20° C | 62% | 1013.4 hPa | 0 mm | - | 429 W/m² | - |
| 1778108914 | 20° C | 61% | 1013.4 hPa | 0 mm | - | 415 W/m² | - |
| 1778107701 | 19.44° C | 62% | 1013.3 hPa | 0 mm | - | 243 W/m² | - |
| 1778105276 | 20° C | 59% | 1013 hPa | 0 mm | - | 383 W/m² | - |
| 1778104976 | 20° C | 61% | 1013.1 hPa | 0 mm | - | 419 W/m² | - |
| 1778104065 | 20.56° C | 58% | 1012.9 hPa | 0 mm | - | 483 W/m² | - |
| 1778103461 | 20° C | 61% | 1013.2 hPa | 0 mm | - | 567 W/m² | - |
| 1778102855 | 20.56° C | 59% | 1013 hPa | 0 mm | - | 693 W/m² | - |
| 1778101034 | 19.44° C | 61% | 1013.3 hPa | 0 mm | - | 635 W/m² | - |
| 1778100734 | 18.89° C | 63% | 1013.7 hPa | 0 mm | - | 503 W/m² | - |
| 1778099827 | 18.33° C | 65% | 1013.6 hPa | 0 mm | - | 347 W/m² | - |
| 1778098917 | 18.89° C | 63% | 1013.6 hPa | 0 mm | - | 523 W/m² | - |
| 1778097704 | 17.78° C | 64% | 1014.4 hPa | 0 mm | - | 548 W/m² | - |
| 1778096491 | 17.78° C | 64% | 1014.2 hPa | 0 mm | - | 517 W/m² | - |
| 1778096189 | 17.78° C | 65% | 1014.5 hPa | 0 mm | - | 664 W/m² | - |
| 1778094671 | 16.11° C | 67% | 1015 hPa | 0 mm | - | 436 W/m² | - |
| 1778094369 | 16.67° C | 67% | 1015.1 hPa | 0 mm | - | 376 W/m² | - |
| 1778093763 | 16.67° C | 66% | 1014.9 hPa | 0 mm | - | 473 W/m² | - |
| 1778093459 | 16.67° C | 67% | 1014.7 hPa | 0 mm | - | 359 W/m² | - |
| 1778092246 | 15.56° C | 69% | 1014.4 hPa | 0 mm | - | 555 W/m² | - |
| 1778091641 | 15° C | 72% | 1014.6 hPa | 0 mm | - | 410 W/m² | - |
* Rain latest hour (hover to see other rain measurements)
** Current wind speed in m/s (hover to see current wind gust speed)